Main page
METAR-TAF:

METAR-TAF

Airports :

Driggs–Reed Memorial Airport

Driggs, Idaho, United States

latitude: 43-44-33N, longitude: 111-05-51W, elevation: 6229 ft

Current weather observation

The report was made 43 minutes ago, at 09:56 UTC
Wind 13 mph from the South/Southeast
Temperature 43°F
Humidity 49%
Pressure 29.97 in. Hg
Visibility: 10 miles
Scattered clouds at a height of 12000 ft

METAR: KDIJ 130956Z AUTO 16011KT 10SM SCT120 06/M04 A2997 RMK AO2 SLP126 T00561039

Time: 04:39 (10:39 UTC)

Forecast

The report was made 5 hours and 19 minutes ago, at 05:20 UTC
Forecast valid from 13 at 06 UTC to 14 at 06 UTC
Wind 7 mph from variable directions
Visibility: 6 miles
Few clouds at a height of 20000 ft
From 13 at 2100 UTC
Wind 10 mph from the Southwest
Visibility: 6 miles
Few clouds at a height of 20000 ft
From 14 at 0200 UTC
Wind 7 mph from variable directions
Visibility: 6 miles
Clear sky

TAF: KDIJ 130520Z 1306/1406 VRB06KT P6SM FEW200 FM132100 23009KT P6SM FEW200 FM140200 VRB06KT P6SM SKC AMD LTD TO CLD VIS AND WIND

Weather observations and forecasts of more than 4000 airports (METAR and TAF reports).

The available stations are represented by yellow and red dots on the map.

Hover mouse over dot to see the name of the station.

Then click to see weather observations and forecasts.

To change the map : click on the green buttons with a black cross to zoom in, on the green button with a dash to zoom out, or on the green arrows for adjacent maps.


METAR-TAF: